Desert Springs, Nevada Weather observations

Data are for 10 minute period ending at time listed.
 Day   Time    Ave.   Ave.  Ave.  Vector   Max.   Total    Solar   
  of    of     Air    Rel.  Wind   Wind    Wind  Precip.   Rad.    
Year   Day     Temp.  Hum.  Speed  Dir.    Gust                    
2014   (PST)    F      %     mph   deg.    mph     in.     W/m2    
------------------------------------------------------------------- 
 273   16:00   65.0    35   15.0    15     25.0    3.93     499  
 273   17:00   64.0    36   13.0    13     24.0    3.93     299  
 273   18:00   59.0    44    6.0    48     19.0    3.93      29  
 273   19:00   57.0    36   10.0    13     15.0    3.93       1  
 273   20:00   55.0    37    8.0    28     15.0    3.93       0  
 273   21:00   51.0    50    5.0    50     17.0    3.93       0  
 273   22:00   51.0    47    4.0    24      9.0    3.93       0  
 273   23:00   49.0    49    3.0    38      8.0    3.93       0  
 274    0:00   48.0    51    3.0    62      6.0    3.93       0  
 274    1:00   47.0    53    1.0     6      8.0    3.93       0  
 274    2:00   46.0    55    4.0    87      6.0    3.93       0  
 274    3:00   44.0    57    2.0   329      4.0    3.93       0  
 274    4:00   44.0    57    2.0   248      4.0    3.93       0  
 274    5:00   43.0    59    2.0    70      4.0    3.93       0  
 274    6:00   42.0    62    3.0   122      6.0    3.93       0  
 274    7:00   45.0    53    2.0   109      4.0    3.93      22  
 274    8:00   48.0    54    3.0   356      4.0    3.93     178  
 274    9:00   51.0    43    5.0   129      8.0    3.93     419  
 274   10:00   53.0    39    7.0   112     13.0    3.93     601  
 274   11:00   55.0    33   12.0   130     21.0    3.93     741  
 274   12:00   57.0    31   10.0   136     22.0    3.93     823  
 274   13:00   59.0    28    9.0   116     18.0    3.93     841  
 274   14:00   60.0    26    7.0   111     17.0    3.93     797  
 274   15:00   61.0    23    9.0   152     17.0    3.93     694  

Return to Desert Springs, Nevada graphs page.


Western Regional Climate Center,wrcc@dri.edu